createdAt,value
2018-07-15T00:01:51.226Z,6.27
2018-07-15T00:03:55.098Z,4.77
2018-07-15T00:05:58.923Z,6.80
2018-07-15T00:08:02.834Z,12.23
2018-07-15T00:10:06.238Z,8.63
2018-07-15T00:12:10.113Z,5.87
2018-07-15T00:14:13.908Z,7.30
2018-07-15T00:16:17.749Z,4.57
2018-07-15T00:18:21.530Z,7.63
2018-07-15T00:20:25.372Z,5.80
2018-07-15T00:22:29.225Z,4.90
2018-07-15T00:24:33.087Z,6.87
2018-07-15T00:26:36.873Z,8.40
2018-07-15T00:28:40.717Z,6.60
2018-07-15T00:30:44.538Z,6.20
2018-07-15T00:32:48.406Z,11.30
2018-07-15T00:34:52.228Z,7.40
2018-07-15T00:36:56.061Z,6.30
2018-07-15T00:38:59.833Z,7.27
2018-07-15T00:41:03.684Z,5.00
2018-07-15T00:43:07.682Z,10.50
2018-07-15T00:45:11.608Z,8.80
2018-07-15T00:47:15.461Z,7.77
2018-07-15T00:49:19.320Z,4.70
2018-07-15T00:51:23.187Z,6.90
2018-07-15T00:53:27.151Z,5.13
2018-07-15T00:55:31.007Z,5.40
2018-07-15T00:57:35.024Z,5.50
2018-07-15T00:59:38.903Z,6.90
2018-07-15T01:01:42.750Z,6.07
2018-07-15T01:03:46.617Z,6.47
2018-07-15T01:05:50.457Z,5.60
2018-07-15T01:07:54.247Z,5.30
2018-07-15T01:09:58.117Z,4.47
2018-07-15T01:12:02.016Z,6.03
2018-07-15T01:14:05.980Z,7.87
2018-07-15T01:16:09.761Z,9.63
2018-07-15T01:18:13.606Z,5.00
2018-07-15T01:20:17.433Z,6.33
2018-07-15T01:22:21.287Z,6.20
2018-07-15T01:24:25.078Z,5.50
2018-07-15T01:26:30.557Z,5.03
2018-07-15T01:28:34.392Z,4.43
2018-07-15T01:30:38.215Z,6.80
2018-07-15T01:32:42.218Z,5.73
2018-07-15T01:34:46.052Z,5.00
2018-07-15T01:36:50.073Z,5.80
2018-07-15T01:38:53.977Z,7.73
2018-07-15T01:40:57.804Z,6.13
2018-07-15T01:43:01.558Z,5.17
2018-07-15T01:45:05.456Z,6.47
2018-07-15T01:47:09.366Z,5.43
2018-07-15T01:49:13.198Z,4.97
2018-07-15T01:51:17.130Z,5.40
2018-07-15T01:53:21.205Z,5.50
2018-07-15T01:55:25.046Z,6.10
2018-07-15T01:57:28.919Z,6.40
2018-07-15T01:59:32.741Z,6.30
2018-07-15T02:01:36.596Z,5.90
2018-07-15T02:03:41.551Z,6.37
2018-07-15T02:05:45.406Z,5.20
2018-07-15T02:07:49.196Z,5.60
2018-07-15T02:09:53.212Z,8.87
2018-07-15T02:11:57.005Z,5.40
2018-07-15T02:14:00.959Z,5.10
2018-07-15T02:16:04.792Z,7.73
2018-07-15T02:18:08.628Z,6.73
2018-07-15T02:20:12.480Z,8.27
2018-07-15T02:22:16.388Z,10.77
2018-07-15T02:24:20.190Z,5.80
2018-07-15T02:26:24.159Z,5.43
2018-07-15T02:28:27.967Z,5.60
2018-07-15T02:30:31.835Z,9.53
2018-07-15T02:32:35.846Z,7.07
2018-07-15T02:34:39.726Z,5.57
2018-07-15T02:36:43.553Z,7.60
2018-07-15T02:38:47.484Z,7.13
2018-07-15T02:40:50.879Z,6.33
2018-07-15T02:42:54.836Z,6.73
2018-07-15T02:44:58.688Z,6.70
2018-07-15T02:47:02.492Z,7.67
2018-07-15T02:49:06.307Z,8.73
2018-07-15T02:51:10.121Z,8.87
2018-07-15T02:53:14.023Z,10.43
2018-07-15T02:55:18.014Z,7.87
2018-07-15T02:57:21.859Z,5.23
2018-07-15T02:59:25.316Z,5.83
2018-07-15T03:01:28.732Z,5.67
2018-07-15T03:03:32.571Z,12.27
2018-07-15T03:05:36.371Z,5.93
2018-07-15T03:07:40.204Z,6.60
2018-07-15T03:09:43.997Z,5.20
2018-07-15T03:11:47.837Z,11.50
2018-07-15T03:13:51.969Z,10.23
2018-07-15T03:15:55.871Z,9.50
2018-07-15T03:17:59.680Z,5.73
2018-07-15T03:20:03.649Z,23.73
2018-07-15T03:22:07.791Z,7.40
2018-07-15T03:24:11.667Z,8.30
2018-07-15T03:26:15.534Z,7.00
2018-07-15T03:28:19.405Z,5.47
2018-07-15T03:30:23.203Z,6.70
2018-07-15T03:32:37.093Z,6.60
2018-07-15T03:34:41.020Z,11.07
2018-07-15T03:36:46.834Z,8.50
2018-07-15T03:38:50.717Z,7.33
2018-07-15T03:40:54.520Z,8.07
2018-07-15T03:42:58.372Z,6.87
2018-07-15T03:45:02.260Z,11.73
2018-07-15T03:47:06.171Z,9.40
2018-07-15T03:49:09.918Z,11.17
2018-07-15T03:51:13.937Z,7.47
2018-07-15T03:53:17.785Z,5.83
2018-07-15T03:55:21.740Z,6.07
2018-07-15T03:57:25.655Z,6.50
2018-07-15T03:59:29.567Z,7.97
2018-07-15T04:01:33.401Z,8.63
2018-07-15T04:03:37.241Z,8.00
2018-07-15T04:05:41.068Z,6.60
2018-07-15T04:07:45.088Z,6.40
2018-07-15T04:09:49.223Z,8.30
2018-07-15T04:11:53.244Z,6.33
2018-07-15T04:13:57.173Z,5.60
2018-07-15T04:16:00.668Z,9.10
2018-07-15T04:18:05.534Z,6.28
2018-07-15T04:20:10.226Z,6.43
2018-07-15T04:22:14.646Z,9.90
2018-07-15T04:24:21.631Z,10.73
2018-07-15T04:26:26.017Z,9.90
2018-07-15T04:31:07.941Z,8.60
2018-07-15T04:33:11.399Z,7.90
2018-07-15T04:35:15.341Z,8.40
2018-07-15T04:37:19.156Z,10.33
2018-07-15T04:39:22.995Z,7.67
2018-07-15T04:41:26.913Z,6.87
2018-07-15T04:43:30.360Z,9.40
2018-07-15T04:45:34.139Z,8.15
2018-07-15T04:47:38.004Z,6.63
2018-07-15T04:49:41.814Z,9.10
2018-07-15T04:51:45.698Z,14.20
2018-07-15T04:53:49.542Z,7.47
2018-07-15T04:55:53.428Z,10.57
2018-07-15T04:57:57.214Z,8.73
2018-07-15T05:00:01.086Z,7.43
2018-07-15T05:02:04.967Z,7.57
2018-07-15T05:04:08.829Z,8.40
2018-07-15T05:06:12.744Z,7.87
2018-07-15T05:08:16.857Z,14.80
2018-07-15T05:10:20.811Z,8.30
2018-07-15T05:12:25.074Z,8.47
2018-07-15T05:14:29.118Z,8.93
2018-07-15T05:16:33.241Z,13.97
2018-07-15T05:18:37.032Z,10.23
2018-07-15T05:20:40.968Z,7.77
2018-07-15T05:22:44.439Z,8.13
2018-07-15T05:24:48.258Z,8.10
2018-07-15T05:26:52.149Z,11.80
2018-07-15T05:28:56.062Z,8.70
2018-07-15T05:30:59.918Z,7.80
2018-07-15T05:33:03.936Z,10.77
2018-07-15T05:35:07.979Z,13.83
2018-07-15T05:37:11.836Z,9.53
2018-07-15T05:39:15.630Z,12.63
2018-07-15T05:41:19.509Z,11.47
2018-07-15T05:43:23.440Z,9.70
2018-07-15T05:45:27.354Z,10.87
2018-07-15T05:47:31.178Z,8.77
2018-07-15T05:49:35.214Z,7.67
2018-07-15T05:51:39.206Z,8.83
2018-07-15T05:53:43.081Z,10.40
2018-07-15T05:55:47.130Z,10.33
2018-07-15T05:57:51.082Z,11.77
2018-07-15T05:59:54.889Z,10.23
2018-07-15T06:01:59.117Z,9.10
2018-07-15T06:04:03.207Z,8.17
2018-07-15T06:06:07.158Z,11.23
2018-07-15T06:08:11.013Z,13.37
2018-07-15T06:10:15.033Z,7.80
2018-07-15T06:12:18.909Z,14.30
2018-07-15T06:14:22.761Z,10.90
2018-07-15T06:16:26.718Z,13.43
2018-07-15T06:18:30.783Z,10.43
2018-07-15T06:20:34.640Z,10.80
2018-07-15T06:22:38.575Z,10.73
2018-07-15T06:24:42.528Z,9.67
2018-07-15T06:26:46.398Z,9.90
2018-07-15T06:28:50.326Z,12.23
2018-07-15T06:30:54.241Z,9.43
2018-07-15T06:32:58.071Z,11.60
2018-07-15T06:35:01.999Z,10.70
2018-07-15T06:37:06.149Z,11.90
2018-07-15T06:39:10.502Z,15.57
2018-07-15T06:41:14.374Z,11.45
2018-07-15T06:43:19.335Z,12.30
2018-07-15T06:45:23.313Z,12.67
2018-07-15T06:47:27.148Z,12.83
2018-07-15T06:49:31.214Z,11.43
2018-07-15T06:51:35.125Z,12.80
2018-07-15T06:53:39.138Z,12.70
2018-07-15T06:55:44.250Z,11.07
2018-07-15T06:57:48.165Z,18.40
2018-07-15T06:59:53.080Z,14.03
2018-07-15T07:01:57.056Z,11.33
2018-07-15T07:04:00.908Z,19.83
2018-07-15T07:06:04.828Z,11.80
2018-07-15T07:08:08.626Z,11.77
2018-07-15T07:10:12.542Z,12.20
2018-07-15T07:12:16.448Z,13.57
2018-07-15T07:14:20.370Z,10.20
2018-07-15T07:16:24.214Z,9.37
2018-07-15T07:18:27.742Z,9.10
2018-07-15T07:20:31.613Z,10.10
2018-07-15T07:22:36.263Z,6.43
2018-07-15T07:24:40.092Z,8.25
2018-07-15T07:26:44.110Z,7.30
2018-07-15T07:28:48.010Z,7.57
2018-07-15T07:30:54.007Z,9.20
2018-07-15T07:32:58.088Z,6.23
2018-07-15T07:35:01.918Z,5.10
2018-07-15T07:37:05.551Z,5.03
2018-07-15T07:39:09.358Z,6.17
2018-07-15T07:41:13.355Z,7.10
2018-07-15T07:43:17.219Z,4.60
2018-07-15T07:45:21.111Z,6.50
2018-07-15T07:47:24.923Z,3.57
2018-07-15T07:49:28.797Z,4.43
2018-07-15T07:51:32.569Z,5.97
2018-07-15T07:53:36.603Z,4.03
2018-07-15T07:55:40.483Z,3.70
2018-07-15T07:57:44.341Z,8.17
2018-07-15T07:59:48.395Z,4.70
2018-07-15T08:01:52.445Z,4.10
2018-07-15T08:03:56.292Z,3.70
2018-07-15T08:06:00.142Z,4.70
2018-07-15T08:08:04.093Z,4.17
2018-07-15T08:10:08.085Z,4.47
2018-07-15T08:12:11.966Z,2.67
2018-07-15T08:14:15.866Z,4.83
2018-07-15T08:16:19.678Z,4.60
2018-07-15T08:18:25.342Z,2.50
2018-07-15T08:20:29.461Z,3.30
2018-07-15T08:22:33.655Z,7.47
2018-07-15T08:24:37.612Z,2.33
2018-07-15T08:26:41.494Z,6.37
2018-07-15T08:28:45.437Z,2.37
2018-07-15T08:31:00.278Z,7.40
2018-07-15T08:33:04.189Z,4.47
2018-07-15T08:35:08.024Z,4.40
2018-07-15T08:37:12.064Z,5.83
2018-07-15T08:39:15.865Z,3.17
2018-07-15T08:41:19.933Z,3.73
2018-07-15T08:43:23.818Z,4.67
2018-07-15T08:45:27.680Z,12.63
2018-07-15T08:47:32.703Z,3.00
2018-07-15T08:49:36.545Z,6.33
2018-07-15T08:51:40.557Z,4.27
2018-07-15T08:53:44.476Z,3.00
2018-07-15T08:55:48.408Z,2.50
2018-07-15T08:57:52.382Z,2.70
2018-07-15T08:59:56.402Z,5.67
2018-07-15T09:02:01.414Z,5.10
2018-07-15T09:04:05.453Z,7.03
2018-07-15T09:06:09.279Z,5.83
2018-07-15T09:08:13.186Z,3.83
2018-07-15T09:10:17.048Z,4.40
2018-07-15T09:12:20.942Z,6.67
2018-07-15T09:14:24.937Z,7.57
2018-07-15T09:16:28.886Z,8.10
2018-07-15T09:18:34.143Z,3.20
2018-07-15T09:20:38.039Z,3.40
2018-07-15T09:22:41.852Z,4.73
2018-07-15T09:24:45.701Z,10.77
2018-07-15T09:26:49.630Z,5.07
2018-07-15T09:28:53.502Z,6.20
2018-07-15T09:30:57.481Z,1.70
2018-07-15T09:33:01.487Z,3.57
2018-07-15T09:35:05.301Z,3.70
2018-07-15T09:37:09.207Z,3.37
2018-07-15T09:39:13.005Z,5.57
2018-07-15T09:41:16.877Z,5.80
2018-07-15T09:43:20.729Z,2.83
2018-07-15T09:45:25.756Z,2.03
2018-07-15T09:47:29.319Z,2.17
2018-07-15T09:49:32.732Z,2.17
2018-07-15T09:51:36.728Z,1.53
2018-07-15T09:53:40.568Z,2.93
2018-07-15T09:55:44.544Z,1.70
2018-07-15T09:57:48.387Z,3.13
2018-07-15T09:59:52.238Z,2.60
2018-07-15T10:01:56.132Z,2.97
2018-07-15T10:04:00.051Z,3.47
2018-07-15T10:06:04.105Z,2.40
2018-07-15T10:08:08.073Z,4.63
2018-07-15T10:10:11.619Z,2.67
2018-07-15T10:12:15.543Z,2.63
2018-07-15T10:14:19.477Z,1.60
2018-07-15T10:16:22.916Z,1.63
2018-07-15T10:18:26.704Z,3.25
2018-07-15T10:20:30.641Z,3.03
2018-07-15T10:22:34.426Z,1.60
2018-07-15T10:24:38.265Z,1.77
2018-07-15T10:26:42.259Z,2.17
2018-07-15T10:28:47.215Z,1.83
2018-07-15T10:30:51.204Z,2.00
2018-07-15T10:32:55.087Z,11.90
2018-07-15T10:34:58.983Z,1.57
2018-07-15T10:37:02.815Z,1.50
2018-07-15T10:39:07.199Z,1.63
2018-07-15T10:41:11.640Z,1.62
2018-07-15T10:43:15.537Z,3.47
2018-07-15T10:45:19.411Z,1.83
2018-07-15T10:47:23.326Z,1.97
2018-07-15T10:49:27.124Z,1.70
2018-07-15T10:51:31.046Z,3.47
2018-07-15T10:53:35.033Z,1.60
2018-07-15T10:55:38.906Z,1.60
2018-07-15T10:57:42.801Z,1.80
2018-07-15T10:59:46.874Z,1.80
2018-07-15T11:01:50.674Z,2.70
2018-07-15T11:03:54.561Z,1.63
2018-07-15T11:05:58.350Z,1.77
2018-07-15T11:08:02.504Z,1.77
2018-07-15T11:10:06.694Z,1.80
2018-07-15T11:12:10.592Z,1.80
2018-07-15T11:14:14.744Z,1.57
2018-07-15T11:16:18.421Z,2.90
2018-07-15T11:18:22.264Z,3.30
2018-07-15T11:20:26.166Z,2.07
2018-07-15T11:22:30.272Z,1.70
2018-07-15T11:24:34.094Z,2.17
2018-07-15T11:26:38.361Z,1.90
2018-07-15T11:28:41.876Z,4.50
2018-07-15T11:30:45.737Z,2.42
2018-07-15T11:32:49.176Z,1.80
2018-07-15T11:34:53.013Z,1.95
2018-07-15T11:36:56.997Z,2.60
2018-07-15T11:39:00.482Z,1.77
2018-07-15T11:41:04.380Z,1.70
2018-07-15T11:43:08.161Z,2.10
2018-07-15T11:45:11.636Z,1.70
2018-07-15T11:47:15.529Z,4.30
2018-07-15T11:49:19.191Z,1.93
2018-07-15T11:51:22.599Z,1.95
2018-07-15T11:53:26.452Z,2.20
2018-07-15T11:55:30.961Z,2.40
2018-07-15T11:57:34.483Z,1.63
2018-07-15T11:59:37.880Z,1.80
2018-07-15T12:01:41.545Z,2.27
2018-07-15T12:03:45.313Z,2.40
2018-07-15T12:05:49.177Z,1.93
2018-07-15T12:07:52.629Z,1.93
2018-07-15T12:09:56.493Z,1.93
2018-07-15T12:11:59.931Z,3.27
2018-07-15T12:14:04.381Z,2.03
2018-07-15T12:16:07.755Z,2.20
2018-07-15T12:18:11.642Z,2.93
2018-07-15T12:20:15.421Z,5.37
2018-07-15T12:22:18.915Z,4.33
2018-07-15T12:24:22.698Z,1.70
2018-07-15T12:26:26.726Z,3.50
2018-07-15T12:28:30.108Z,2.13
2018-07-15T12:30:33.990Z,2.10
2018-07-15T12:32:37.786Z,2.20
2018-07-15T12:34:41.633Z,2.17
2018-07-15T12:36:45.490Z,5.93
2018-07-15T12:38:49.340Z,1.93
2018-07-15T12:40:53.157Z,1.73
2018-07-15T12:42:57.062Z,3.73
2018-07-15T12:45:00.845Z,2.60
2018-07-15T12:47:04.275Z,3.80
2018-07-15T12:49:21.234Z,5.70
2018-07-15T12:51:25.292Z,7.90
2018-07-15T12:53:29.332Z,3.50
2018-07-15T12:55:33.398Z,3.17
2018-07-15T12:57:37.272Z,2.70
2018-07-15T12:59:41.941Z,3.03
2018-07-15T13:01:45.441Z,1.98
2018-07-15T13:03:49.310Z,2.10
2018-07-15T13:05:52.779Z,1.90
2018-07-15T13:07:56.636Z,1.63
2018-07-15T13:10:00.490Z,1.77
2018-07-15T13:12:04.451Z,2.00
2018-07-15T13:14:08.318Z,2.23
2018-07-15T13:16:11.842Z,1.80
2018-07-15T13:18:16.403Z,2.60
2018-07-15T13:20:20.273Z,1.70
2018-07-15T13:22:24.066Z,1.70
2018-07-15T13:24:27.940Z,1.87
2018-07-15T13:26:31.853Z,3.40
2018-07-15T13:28:35.898Z,2.90
2018-07-15T13:30:39.700Z,2.10
2018-07-15T13:32:43.640Z,2.87
2018-07-15T13:34:47.537Z,1.63
2018-07-15T13:36:51.074Z,2.53
2018-07-15T13:38:54.904Z,2.85
2018-07-15T13:40:58.788Z,2.10
2018-07-15T13:43:02.223Z,1.50
2018-07-15T13:45:06.091Z,1.70
2018-07-15T13:47:09.885Z,1.80
2018-07-15T13:49:13.310Z,1.50
2018-07-15T13:51:16.689Z,1.52
2018-07-15T13:53:20.579Z,2.17
2018-07-15T13:55:23.956Z,3.50
2018-07-15T13:57:27.860Z,3.53
2018-07-15T13:59:31.726Z,1.50
2018-07-15T14:01:35.702Z,1.53
2018-07-15T14:03:39.438Z,1.50
2018-07-15T14:05:43.338Z,1.60
2018-07-15T14:07:47.337Z,1.50
2018-07-15T14:09:50.824Z,1.53
2018-07-15T14:11:54.684Z,1.65
2018-07-15T14:13:58.312Z,4.10
2018-07-15T14:16:02.107Z,1.30
2018-07-15T14:18:06.294Z,1.60
2018-07-15T14:20:10.545Z,1.77
2018-07-15T14:22:14.376Z,2.17
2018-07-15T14:24:18.394Z,1.47
2018-07-15T14:26:22.445Z,4.73
2018-07-15T14:28:26.251Z,1.63
2018-07-15T14:30:30.303Z,1.63
2018-07-15T14:32:34.148Z,1.40
2018-07-15T14:34:37.984Z,2.73
2018-07-15T14:36:41.839Z,1.50
2018-07-15T14:38:45.665Z,1.50
2018-07-15T14:40:49.469Z,1.40
2018-07-15T14:42:52.966Z,1.57
2018-07-15T14:44:56.738Z,1.57
2018-07-15T14:47:00.593Z,1.50
2018-07-15T14:49:04.761Z,2.00
2018-07-15T14:51:08.342Z,1.40
2018-07-15T14:53:12.350Z,1.45
2018-07-15T14:55:16.465Z,1.47
2018-07-15T14:57:20.263Z,2.07
2018-07-15T14:59:23.759Z,1.80
2018-07-15T15:01:27.268Z,2.35
2018-07-15T15:03:30.750Z,3.73
2018-07-15T15:05:34.210Z,2.45
2018-07-15T15:07:37.794Z,2.03
2018-07-15T15:09:41.217Z,1.50
2018-07-15T15:11:44.785Z,7.23
2018-07-15T15:13:48.199Z,1.98
2018-07-15T15:15:51.654Z,1.50
2018-07-15T15:17:55.141Z,2.80
2018-07-15T15:20:00.856Z,1.33
2018-07-15T15:22:04.413Z,1.37
2018-07-15T15:24:08.558Z,1.47
2018-07-15T15:26:12.197Z,1.93
2018-07-15T15:28:15.857Z,1.57
2018-07-15T15:30:20.828Z,1.20
2018-07-15T15:32:24.768Z,1.10
2018-07-15T15:34:29.047Z,1.20
2018-07-15T15:36:33.247Z,1.10
2018-07-15T15:38:37.364Z,1.50
2018-07-15T15:40:41.015Z,3.33
2018-07-15T15:42:45.286Z,2.80
2018-07-15T15:44:49.522Z,1.20
2018-07-15T15:46:53.428Z,2.50
2018-07-15T15:48:57.081Z,3.00
2018-07-15T15:51:00.877Z,1.65
2018-07-15T15:53:05.215Z,1.67
2018-07-15T15:55:09.209Z,1.37
2018-07-15T15:57:12.749Z,1.30
2018-07-15T15:59:16.316Z,1.37
2018-07-15T16:01:20.462Z,1.40
2018-07-15T16:03:24.793Z,2.30
2018-07-15T16:05:29.054Z,1.43
2018-07-15T16:07:33.107Z,2.17
2018-07-15T16:09:37.357Z,1.30
2018-07-15T16:11:40.990Z,1.10
2018-07-15T16:13:44.692Z,1.07
2018-07-15T16:15:48.699Z,2.00
2018-07-15T16:17:52.685Z,1.30
2018-07-15T16:19:57.242Z,1.60
2018-07-15T16:22:02.514Z,2.50
2018-07-15T16:24:06.849Z,1.57
2018-07-15T16:26:10.923Z,1.32
2018-07-15T16:28:15.679Z,1.77
2018-07-15T16:30:19.738Z,1.30
2018-07-15T16:32:23.935Z,2.20
2018-07-15T16:34:27.533Z,4.30
2018-07-15T16:36:31.629Z,1.30
2018-07-15T16:38:35.639Z,3.60
2018-07-15T16:40:39.459Z,1.07
2018-07-15T16:42:43.668Z,1.30
2018-07-15T16:44:47.541Z,3.57
2018-07-15T16:46:51.317Z,1.47
2018-07-15T16:48:55.046Z,1.20
2018-07-15T16:50:59.080Z,1.30
2018-07-15T16:53:02.929Z,1.20
2018-07-15T16:55:06.474Z,5.10
2018-07-15T16:57:10.313Z,1.10
2018-07-15T16:59:21.207Z,0.93
2018-07-15T17:01:27.270Z,2.03
2018-07-15T17:03:34.319Z,1.07
2018-07-15T17:05:38.032Z,2.53
2018-07-15T17:07:43.241Z,1.50
2018-07-15T17:09:47.516Z,1.43
2018-07-15T17:11:51.057Z,1.57
2018-07-15T17:13:55.016Z,1.87
2018-07-15T17:15:58.919Z,1.20
2018-07-15T17:18:02.580Z,3.27
2018-07-15T17:20:07.803Z,1.52
2018-07-15T17:22:11.926Z,1.30
2018-07-15T17:24:15.983Z,1.27
2018-07-15T17:26:21.232Z,1.20
2018-07-15T17:28:25.464Z,1.10
2018-07-15T17:30:30.418Z,1.30
2018-07-15T17:32:34.259Z,1.20
2018-07-15T17:34:38.190Z,2.50
2018-07-15T17:36:42.398Z,3.17
2018-07-15T17:38:46.337Z,1.97
2018-07-15T17:40:52.501Z,1.30
2018-07-15T17:42:56.269Z,3.23
2018-07-15T17:44:59.995Z,3.10
2018-07-15T17:47:04.247Z,2.43
2018-07-15T17:49:09.912Z,2.10
2018-07-15T17:51:13.774Z,1.40
2018-07-15T17:53:17.841Z,4.70
2018-07-15T17:55:22.149Z,2.30
2018-07-15T17:57:26.075Z,3.22
2018-07-15T17:59:30.145Z,1.77
2018-07-15T18:01:33.793Z,2.13
2018-07-15T18:03:37.614Z,1.27
2018-07-15T18:05:41.689Z,1.03
2018-07-15T18:07:45.446Z,1.30
2018-07-15T18:09:49.232Z,1.43
2018-07-15T18:11:52.975Z,1.00
2018-07-15T18:13:57.315Z,1.90
2018-07-15T18:16:01.931Z,1.10
2018-07-15T18:18:05.856Z,4.80
2018-07-15T18:20:10.787Z,1.30
2018-07-15T18:22:14.715Z,1.53
2018-07-15T18:24:18.514Z,1.20
2018-07-15T18:26:23.042Z,1.37
2018-07-15T18:28:27.057Z,1.50
2018-07-15T18:30:31.215Z,10.20
2018-07-15T18:32:35.432Z,1.40
2018-07-15T18:34:39.961Z,2.23
2018-07-15T18:36:43.585Z,3.45
2018-07-15T18:38:47.621Z,1.20
2018-07-15T18:40:51.616Z,1.00
2018-07-15T18:42:56.039Z,1.20
2018-07-15T18:44:59.932Z,3.10
2018-07-15T18:47:04.777Z,1.43
2018-07-15T18:49:09.015Z,1.22
2018-07-15T18:51:13.428Z,1.10
2018-07-15T18:53:21.654Z,2.02
2018-07-15T18:55:26.005Z,1.70
2018-07-15T18:57:29.762Z,1.30
2018-07-15T18:59:34.428Z,1.23
2018-07-15T19:01:38.767Z,1.22
2018-07-15T19:03:43.192Z,1.17
2018-07-15T19:05:46.928Z,1.35
2018-07-15T19:07:51.138Z,3.77
2018-07-15T19:09:55.638Z,1.20
2018-07-15T19:12:00.270Z,1.00
2018-07-15T19:14:04.534Z,2.58
2018-07-15T19:16:08.913Z,4.30
2018-07-15T19:18:13.225Z,3.30
2018-07-15T19:20:17.609Z,1.60
2018-07-15T19:22:21.861Z,1.70
2018-07-15T19:24:26.217Z,1.67
2018-07-15T19:26:30.389Z,4.25
2018-07-15T19:28:34.711Z,1.73
2018-07-15T19:30:38.964Z,2.05
2018-07-15T19:32:42.849Z,1.50
2018-07-15T19:34:47.020Z,3.93
2018-07-15T19:36:51.215Z,2.20
2018-07-15T19:38:57.832Z,16.13
2018-07-15T19:41:01.962Z,1.33
2018-07-15T19:43:05.980Z,1.30
2018-07-15T19:45:10.252Z,1.20
2018-07-15T19:47:14.391Z,1.72
2018-07-15T19:49:19.079Z,3.73
2018-07-15T19:51:22.664Z,4.00
2018-07-15T19:53:26.841Z,1.37
2018-07-15T19:55:30.456Z,1.50
2018-07-15T19:57:34.674Z,1.00
2018-07-15T19:59:38.279Z,6.87
2018-07-15T20:01:42.571Z,1.37
2018-07-15T20:03:46.745Z,1.95
2018-07-15T20:05:50.790Z,3.33
2018-07-15T20:07:54.786Z,1.70
2018-07-15T20:09:59.059Z,1.53
2018-07-15T20:12:03.311Z,2.77
2018-07-15T20:14:07.526Z,3.20
2018-07-15T20:16:11.786Z,4.43
2018-07-15T20:18:15.954Z,6.93
2018-07-15T20:20:19.995Z,2.97
2018-07-15T20:22:23.748Z,3.03
2018-07-15T20:24:27.772Z,1.50
2018-07-15T20:26:31.886Z,1.60
2018-07-15T20:28:36.317Z,4.53
2018-07-15T20:30:40.563Z,1.50
2018-07-15T20:32:44.648Z,5.40
2018-07-15T20:34:48.766Z,1.30
2018-07-15T20:36:54.831Z,1.73
2018-07-15T20:38:58.908Z,2.50
2018-07-15T20:41:02.957Z,1.20
2018-07-15T20:43:09.341Z,3.33
2018-07-15T20:45:12.968Z,1.50
2018-07-15T20:47:17.035Z,9.58
2018-07-15T20:49:21.197Z,1.40
2018-07-15T20:51:26.831Z,2.27
2018-07-15T20:53:30.652Z,2.67
2018-07-15T20:55:34.760Z,1.60
2018-07-15T20:57:39.081Z,1.57
2018-07-15T20:59:43.036Z,6.08
2018-07-15T21:01:47.057Z,8.40
2018-07-15T21:03:51.130Z,1.50
2018-07-15T21:05:54.816Z,1.40
2018-07-15T21:07:58.959Z,12.43
2018-07-15T21:10:03.698Z,1.60
2018-07-15T21:12:07.973Z,1.50
2018-07-15T21:14:12.213Z,1.70
2018-07-15T21:16:16.364Z,10.90
2018-07-15T21:18:20.454Z,1.27
2018-07-15T21:20:24.602Z,5.87
2018-07-15T21:22:28.686Z,1.50
2018-07-15T21:24:32.677Z,1.43
2018-07-15T21:26:37.079Z,1.40
2018-07-15T21:28:41.128Z,8.43
2018-07-15T21:30:45.570Z,1.60
2018-07-15T21:32:49.786Z,3.47
2018-07-15T21:34:53.450Z,1.73
2018-07-15T21:36:57.623Z,1.40
2018-07-15T21:39:01.777Z,2.40
2018-07-15T21:41:05.841Z,8.30
2018-07-15T21:43:09.547Z,4.70
2018-07-15T21:45:13.324Z,3.37
2018-07-15T21:47:18.629Z,3.23
2018-07-15T21:49:22.933Z,3.47
2018-07-15T21:51:27.099Z,2.25
2018-07-15T21:53:31.154Z,2.27
2018-07-15T21:55:35.395Z,4.27
2018-07-15T21:57:39.487Z,5.53
2018-07-15T21:59:44.151Z,4.40
2018-07-15T22:01:48.338Z,3.00
2018-07-15T22:03:52.343Z,1.50
2018-07-15T22:05:56.523Z,3.57
2018-07-15T22:08:11.497Z,3.53
2018-07-15T22:10:47.546Z,1.47
2018-07-15T22:12:51.639Z,1.97
2018-07-15T22:14:55.692Z,6.17
2018-07-15T22:16:59.873Z,6.40
2018-07-15T22:19:04.008Z,5.50
2018-07-15T22:21:08.150Z,2.50
2018-07-15T22:23:12.422Z,8.23
2018-07-15T22:25:16.715Z,6.47
2018-07-15T22:27:20.777Z,2.55
2018-07-15T22:29:24.508Z,1.73
2018-07-15T22:31:28.578Z,3.10
2018-07-15T22:33:32.580Z,1.97
2018-07-15T22:35:36.672Z,3.37
2018-07-15T22:37:40.819Z,1.80
2018-07-15T22:39:44.426Z,5.13
2018-07-15T22:41:48.474Z,2.03
2018-07-15T22:43:52.597Z,6.40
2018-07-15T22:45:56.719Z,6.03
2018-07-15T22:48:00.715Z,4.87
2018-07-15T22:50:05.127Z,2.63
2018-07-15T22:52:09.219Z,2.42
2018-07-15T22:54:13.664Z,6.47
2018-07-15T22:56:17.816Z,5.17
2018-07-15T22:58:21.486Z,3.10
2018-07-15T23:00:25.679Z,6.58
2018-07-15T23:02:30.065Z,2.57
2018-07-15T23:04:48.742Z,9.43
2018-07-15T23:06:52.843Z,4.67
2018-07-15T23:08:56.869Z,4.13
2018-07-15T23:11:01.099Z,3.53
2018-07-15T23:13:06.460Z,8.03
2018-07-15T23:15:10.514Z,1.83
2018-07-15T23:17:14.517Z,1.77
2018-07-15T23:19:18.613Z,1.77
2018-07-15T23:21:22.769Z,3.70
2018-07-15T23:23:26.828Z,4.73
2018-07-15T23:25:30.932Z,1.80
2018-07-15T23:27:35.129Z,2.40
2018-07-15T23:29:39.413Z,3.90
2018-07-15T23:31:43.492Z,3.10
2018-07-15T23:33:47.637Z,4.70
2018-07-15T23:35:51.709Z,2.80
2018-07-15T23:37:55.910Z,1.77
2018-07-15T23:40:00.344Z,6.93
2018-07-15T23:42:04.390Z,6.20
2018-07-15T23:44:08.578Z,3.93
2018-07-15T23:46:12.630Z,1.87
2018-07-15T23:48:17.204Z,5.40
2018-07-15T23:50:21.442Z,4.50
2018-07-15T23:52:25.648Z,1.97
2018-07-15T23:54:29.844Z,5.43
2018-07-15T23:56:34.197Z,5.10
2018-07-15T23:58:38.599Z,3.42
